createdAt,value
2023-02-11T12:47:33.521Z,77.69
2023-02-11T12:53:31.381Z,78.03
2023-02-11T12:58:45.415Z,78.16
2023-02-11T13:04:19.221Z,78.47
2023-02-11T13:15:55.717Z,78.59
2023-02-11T13:28:19.950Z,78.65
2023-02-11T13:34:21.664Z,78.67
2023-02-11T13:46:37.111Z,78.91
2023-02-11T13:52:45.043Z,79.00
2023-02-11T13:59:15.357Z,79.13
2023-02-11T14:05:45.098Z,79.16
2023-02-11T14:12:28.231Z,79.47
2023-02-11T14:19:02.171Z,79.88
2023-02-11T14:25:31.342Z,80.33
2023-02-11T14:32:15.295Z,81.25
2023-02-11T14:39:00.273Z,81.81
2023-02-11T14:45:16.744Z,82.38
2023-02-11T14:51:46.527Z,84.08
2023-02-11T14:58:17.322Z,85.43
2023-02-11T15:04:46.715Z,87.02
2023-02-11T15:11:06.345Z,88.07
2023-02-11T15:17:35.217Z,88.88
2023-02-11T15:24:02.675Z,89.73
2023-02-11T15:30:32.373Z,90.38
2023-02-11T15:36:58.651Z,88.82
2023-02-11T15:43:27.544Z,89.34
2023-02-11T15:49:55.535Z,90.50
2023-02-11T15:56:07.879Z,89.40
2023-02-11T16:02:38.487Z,90.67
2023-02-11T16:09:04.506Z,91.51
2023-02-11T16:15:45.125Z,91.92
2023-02-11T16:22:15.261Z,90.55
2023-02-11T16:28:44.081Z,91.50
2023-02-11T16:35:21.694Z,90.66
2023-02-11T16:41:31.553Z,91.23
2023-02-11T16:48:01.747Z,91.48
2023-02-11T16:54:27.484Z,91.23
2023-02-11T17:00:57.322Z,91.75
2023-02-11T17:07:18.130Z,91.69
2023-02-11T17:13:41.111Z,91.81
2023-02-11T17:20:07.435Z,91.82
2023-02-11T17:26:37.362Z,91.95
2023-02-11T17:33:04.913Z,92.06
2023-02-11T17:39:27.318Z,92.49
2023-02-11T17:52:38.344Z,92.89
2023-02-11T17:59:05.566Z,92.47
2023-02-11T18:05:33.273Z,92.55
2023-02-11T18:12:03.421Z,91.20
2023-02-11T18:18:13.670Z,91.44
2023-02-11T18:30:48.477Z,92.70
2023-02-11T18:37:19.980Z,92.89
2023-02-11T18:43:39.979Z,92.83
2023-02-11T18:49:37.804Z,93.02
2023-02-11T18:56:12.167Z,93.34
2023-02-11T19:02:43.066Z,93.52
2023-02-11T19:09:16.120Z,93.65
2023-02-11T19:15:46.687Z,93.63
2023-02-11T19:22:13.857Z,93.77
2023-02-11T19:28:44.718Z,93.80
2023-02-11T19:34:21.817Z,93.75
2023-02-11T19:40:50.680Z,93.89
2023-02-11T19:47:21.849Z,94.01
2023-02-11T19:53:54.519Z,94.15
2023-02-11T20:00:17.118Z,94.43
2023-02-11T20:06:49.088Z,94.50
2023-02-11T20:20:13.404Z,94.66
2023-02-11T20:26:17.550Z,94.74
2023-02-11T20:32:45.812Z,94.65
2023-02-11T20:39:14.925Z,94.63
2023-02-11T20:45:44.814Z,94.68
2023-02-11T20:52:12.619Z,94.64
2023-02-11T20:58:51.438Z,94.67
2023-02-11T21:05:23.564Z,94.77
2023-02-11T21:11:52.263Z,94.76
2023-02-11T21:18:19.492Z,94.76
2023-02-11T21:24:39.911Z,94.64
2023-02-11T21:31:08.374Z,94.59
2023-02-11T21:37:39.625Z,94.73
2023-02-11T21:44:06.114Z,94.71
2023-02-11T21:50:39.004Z,94.84
2023-02-11T21:57:04.260Z,94.89
2023-02-11T22:03:28.662Z,95.01
2023-02-11T22:10:29.441Z,94.96
2023-02-11T22:16:58.703Z,94.98
2023-02-11T22:23:17.547Z,95.00
2023-02-11T22:29:44.490Z,94.96
2023-02-11T22:35:57.473Z,94.90
2023-02-11T22:42:24.052Z,94.86
2023-02-11T22:48:48.164Z,95.18
2023-02-11T22:55:13.332Z,95.23
2023-02-11T23:01:13.953Z,95.22
2023-02-11T23:07:31.840Z,95.24
2023-02-11T23:13:40.274Z,95.21
2023-02-11T23:20:04.997Z,95.14
2023-02-11T23:26:15.076Z,95.24
2023-02-11T23:32:40.375Z,95.21
2023-02-11T23:39:08.901Z,95.12
2023-02-11T23:45:28.568Z,95.08
2023-02-11T23:51:54.751Z,95.06
2023-02-11T23:58:00.449Z,95.00
